createdAt,value
2023-08-11T00:02:05.141Z,16.38
2023-08-11T00:07:07.508Z,16.49
2023-08-11T00:12:08.714Z,16.27
2023-08-11T00:17:09.104Z,16.30
2023-08-11T00:22:08.310Z,16.23
2023-08-11T00:27:10.606Z,16.23
2023-08-11T00:32:09.800Z,16.33
2023-08-11T00:37:11.866Z,16.40
2023-08-11T00:42:10.934Z,16.31
2023-08-11T00:47:11.997Z,16.33
2023-08-11T00:52:14.076Z,16.31
2023-08-11T00:57:14.216Z,16.30
2023-08-11T01:02:14.340Z,16.14
2023-08-11T01:07:13.409Z,16.06
2023-08-11T01:12:14.511Z,16.12
2023-08-11T01:17:15.572Z,16.23
2023-08-11T01:22:16.624Z,16.18
2023-08-11T01:27:17.689Z,16.12
2023-08-11T01:32:19.819Z,16.12
2023-08-11T01:37:19.869Z,16.12
2023-08-11T01:42:19.942Z,16.26
2023-08-11T01:47:19.035Z,16.23
2023-08-11T01:52:20.113Z,16.31
2023-08-11T01:57:21.202Z,16.33
2023-08-11T02:02:24.256Z,16.41
2023-08-11T02:07:22.344Z,16.50
2023-08-11T02:12:24.446Z,16.50
2023-08-11T02:17:23.545Z,16.63
2023-08-11T02:22:24.696Z,16.78
2023-08-11T02:27:25.749Z,16.80
2023-08-11T02:32:26.869Z,16.68
2023-08-11T02:37:27.889Z,16.60
2023-08-11T02:42:28.980Z,16.77
2023-08-11T02:47:30.125Z,16.73
2023-08-11T02:52:31.166Z,16.80
2023-08-11T02:57:31.282Z,16.83
2023-08-11T03:02:32.381Z,16.70
2023-08-11T03:07:34.410Z,16.85
2023-08-11T03:12:33.519Z,17.00
2023-08-11T03:17:34.685Z,17.23
2023-08-11T03:22:35.777Z,17.69
2023-08-11T03:27:36.896Z,17.99
2023-08-11T03:32:38.991Z,18.06
2023-08-11T03:37:38.086Z,18.03
2023-08-11T03:42:40.166Z,17.92
2023-08-11T03:47:40.322Z,17.76
2023-08-11T03:52:38.419Z,17.70
2023-08-11T03:57:40.817Z,17.70
2023-08-11T04:02:40.973Z,17.64
2023-08-11T04:07:40.057Z,17.78
2023-08-11T04:12:43.176Z,17.88
2023-08-11T04:17:42.255Z,17.95
2023-08-11T04:22:43.326Z,17.95
2023-08-11T04:27:45.458Z,17.91
2023-08-11T04:32:44.862Z,17.91
2023-08-11T04:37:43.989Z,17.79
2023-08-11T04:42:45.103Z,17.91
2023-08-11T04:47:46.314Z,18.00
2023-08-11T04:52:47.669Z,17.97
2023-08-11T04:57:48.663Z,18.03
2023-08-11T05:02:51.825Z,17.69
2023-08-11T05:07:50.874Z,17.79
2023-08-11T05:12:51.955Z,18.22
2023-08-11T05:17:55.126Z,18.59
2023-08-11T05:22:54.164Z,18.95
2023-08-11T05:27:55.238Z,19.13
2023-08-11T05:32:58.513Z,19.38
2023-08-11T05:37:57.578Z,19.57
2023-08-11T05:43:00.664Z,19.76
2023-08-11T05:48:00.813Z,20.00
2023-08-11T05:53:05.159Z,20.08
2023-08-11T05:58:00.210Z,20.13
2023-08-11T06:03:02.336Z,20.23
2023-08-11T06:08:06.585Z,20.39
2023-08-11T06:13:02.224Z,20.59
2023-08-11T06:18:03.388Z,20.84
2023-08-11T06:23:05.437Z,20.96
2023-08-11T06:28:04.555Z,21.08
2023-08-11T06:33:05.721Z,21.20
2023-08-11T06:38:08.810Z,21.27
2023-08-11T06:43:08.901Z,21.41
2023-08-11T06:48:08.029Z,21.67
2023-08-11T06:53:10.079Z,21.88
2023-08-11T06:58:11.125Z,21.99
2023-08-11T07:03:11.233Z,22.19
2023-08-11T07:08:10.358Z,22.28
2023-08-11T07:13:12.413Z,22.39
2023-08-11T07:18:12.560Z,22.62
2023-08-11T07:23:11.668Z,22.77
2023-08-11T07:28:12.780Z,23.01
2023-08-11T07:33:14.886Z,23.31
2023-08-11T07:38:13.941Z,23.31
2023-08-11T07:43:15.997Z,23.35
2023-08-11T07:48:15.075Z,23.68
2023-08-11T07:53:16.148Z,23.92
2023-08-11T07:58:18.216Z,23.95
2023-08-11T08:03:18.776Z,24.24
2023-08-11T08:08:19.042Z,24.53
2023-08-11T08:13:19.096Z,24.85
2023-08-11T08:18:18.179Z,24.82
2023-08-11T08:23:19.256Z,24.97
2023-08-11T08:28:22.299Z,25.32
2023-08-11T08:33:21.484Z,25.20
2023-08-11T08:38:23.681Z,25.61
2023-08-11T08:43:23.761Z,25.94
2023-08-11T08:48:22.845Z,26.01
2023-08-11T08:53:34.828Z,26.17
2023-08-11T08:58:24.871Z,26.49
2023-08-11T09:03:25.094Z,26.95
2023-08-11T09:08:24.191Z,27.14
2023-08-11T09:13:26.329Z,27.32
2023-08-11T09:18:26.424Z,27.14
2023-08-11T09:23:26.649Z,26.62
2023-08-11T09:28:26.825Z,26.73
2023-08-11T09:33:27.829Z,26.81
2023-08-11T09:38:26.889Z,26.58
2023-08-11T09:43:31.552Z,26.43
2023-08-11T09:48:29.609Z,26.58
2023-08-11T09:53:28.641Z,26.50
2023-08-11T09:58:30.721Z,26.87
2023-08-11T10:03:30.919Z,26.47
2023-08-11T10:08:30.970Z,26.39
2023-08-11T10:13:31.014Z,27.02
2023-08-11T10:18:30.116Z,26.76
2023-08-11T10:23:31.330Z,26.64
2023-08-11T10:28:33.555Z,26.79
2023-08-11T10:33:33.657Z,26.96
2023-08-11T10:38:32.780Z,27.09
2023-08-11T10:43:34.885Z,27.28
2023-08-11T10:48:33.932Z,27.41
2023-08-11T10:53:35.102Z,27.32
2023-08-11T10:58:37.192Z,27.38
2023-08-11T11:03:37.255Z,27.47
2023-08-11T11:08:37.303Z,27.58
2023-08-11T11:13:38.334Z,27.80
2023-08-11T11:18:38.409Z,27.43
2023-08-11T11:23:38.472Z,27.46
2023-08-11T11:28:37.568Z,27.50
2023-08-11T11:33:38.687Z,27.73
2023-08-11T11:38:39.789Z,27.58
2023-08-11T11:43:41.896Z,27.85
2023-08-11T11:48:41.914Z,27.41
2023-08-11T11:53:40.966Z,27.64
2023-08-11T11:58:42.094Z,27.91
2023-08-11T12:03:43.219Z,27.79
2023-08-11T12:08:45.280Z,27.89
2023-08-11T12:13:47.296Z,28.31
2023-08-11T12:18:44.908Z,28.35
2023-08-11T12:23:46.990Z,28.50
2023-08-11T12:28:47.046Z,28.50
2023-08-11T12:33:47.225Z,28.40
2023-08-11T12:38:46.307Z,28.56
2023-08-11T12:43:48.370Z,28.69
2023-08-11T12:48:47.572Z,28.78
2023-08-11T12:53:48.615Z,29.08
2023-08-11T12:58:50.697Z,29.38
2023-08-11T13:03:49.878Z,29.45
2023-08-11T13:08:51.090Z,29.44
2023-08-11T13:13:52.189Z,29.40
2023-08-11T13:18:53.380Z,29.55
2023-08-11T13:23:55.404Z,29.66
2023-08-11T13:28:54.580Z,29.45
2023-08-11T13:33:55.590Z,29.35
2023-08-11T13:38:57.624Z,29.35
2023-08-11T13:43:56.725Z,29.60
2023-08-11T13:48:58.794Z,29.45
2023-08-11T13:53:56.840Z,29.62
2023-08-11T13:58:58.918Z,29.56
2023-08-11T14:03:59.059Z,29.45
2023-08-11T14:08:58.160Z,29.63
2023-08-11T14:14:01.270Z,29.49
2023-08-11T14:19:00.366Z,29.72
2023-08-11T14:24:02.507Z,29.71
2023-08-11T14:29:01.628Z,29.62
2023-08-11T14:34:02.802Z,29.45
2023-08-11T14:39:03.982Z,29.56
2023-08-11T14:44:06.148Z,29.43
2023-08-11T14:49:05.222Z,29.53
2023-08-11T14:54:06.317Z,29.71
2023-08-11T14:59:07.697Z,29.65
2023-08-11T15:04:08.794Z,29.71
2023-08-11T15:09:09.886Z,29.84
2023-08-11T15:14:12.012Z,30.02
2023-08-11T15:19:11.056Z,29.93
2023-08-11T15:24:13.114Z,29.99
2023-08-11T15:29:13.185Z,30.16
2023-08-11T15:34:13.262Z,30.30
2023-08-11T15:39:13.303Z,30.56
2023-08-11T15:44:12.391Z,30.52
2023-08-11T15:49:13.474Z,30.68
2023-08-11T15:54:14.503Z,30.34
2023-08-11T15:59:16.569Z,30.59
2023-08-11T16:04:16.744Z,30.50
2023-08-11T16:09:15.852Z,30.76
2023-08-11T16:14:15.952Z,31.12
2023-08-11T16:19:17.647Z,31.20
2023-08-11T16:24:18.685Z,31.02
2023-08-11T16:29:19.813Z,31.57
2023-08-11T16:34:18.854Z,31.61
2023-08-11T16:39:20.033Z,31.13
2023-08-11T16:44:23.063Z,31.01
2023-08-11T16:49:21.463Z,32.22
2023-08-11T16:54:22.588Z,32.21
2023-08-11T16:59:23.655Z,32.81
2023-08-11T17:04:25.774Z,33.43
2023-08-11T17:09:25.845Z,32.96
2023-08-11T17:14:25.898Z,32.99
2023-08-11T17:19:24.947Z,33.46
2023-08-11T17:24:26.010Z,33.70
2023-08-11T17:29:28.086Z,33.83
2023-08-11T17:34:30.134Z,33.95
2023-08-11T17:39:27.485Z,33.41
2023-08-11T17:44:28.672Z,33.39
2023-08-11T17:49:29.694Z,33.04
2023-08-11T17:54:30.758Z,32.59
2023-08-11T17:59:31.873Z,32.21
2023-08-11T18:04:33.945Z,31.76
2023-08-11T18:09:33.006Z,31.09
2023-08-11T18:14:35.053Z,29.52
2023-08-11T18:19:35.187Z,28.46
2023-08-11T18:24:34.253Z,27.67
2023-08-11T18:29:36.495Z,27.48
2023-08-11T18:34:35.586Z,26.69
2023-08-11T18:39:37.737Z,26.31
2023-08-11T18:44:37.997Z,25.89
2023-08-11T18:49:37.389Z,25.65
2023-08-11T18:54:39.867Z,24.92
2023-08-11T18:59:39.402Z,24.95
2023-08-11T19:04:38.865Z,24.75
2023-08-11T19:09:39.265Z,24.53
2023-08-11T19:14:39.667Z,24.12
2023-08-11T19:19:38.935Z,24.16
2023-08-11T19:24:40.182Z,24.05
2023-08-11T19:29:41.400Z,23.87
2023-08-11T19:34:42.759Z,23.67
2023-08-11T19:39:45.242Z,23.60
2023-08-11T19:44:44.785Z,23.39
2023-08-11T19:49:44.336Z,23.38
2023-08-11T19:54:43.607Z,22.94
2023-08-11T19:59:45.124Z,22.72
2023-08-11T20:04:44.532Z,22.56
2023-08-11T20:09:46.012Z,22.52
2023-08-11T20:14:45.433Z,22.69
2023-08-11T20:19:47.903Z,22.57
2023-08-11T20:24:49.384Z,22.49
2023-08-11T20:29:47.849Z,22.43
2023-08-11T20:34:48.305Z,22.19
2023-08-11T20:39:48.721Z,21.94
2023-08-11T20:44:48.090Z,21.83
2023-08-11T20:49:50.282Z,21.91
2023-08-11T20:54:49.441Z,21.83
2023-08-11T20:59:50.697Z,21.88
2023-08-11T21:04:52.883Z,21.71
2023-08-11T21:09:52.966Z,21.72
2023-08-11T21:14:52.044Z,21.76
2023-08-11T21:19:53.098Z,21.90
2023-08-11T21:24:54.285Z,21.79
2023-08-11T21:29:55.384Z,21.66
2023-08-11T21:34:58.440Z,21.64
2023-08-11T21:39:58.499Z,21.57
2023-08-11T21:44:59.591Z,21.45
2023-08-11T21:49:59.646Z,21.36
2023-08-11T21:54:58.704Z,21.30
2023-08-11T21:59:59.752Z,21.95
2023-08-11T22:05:01.781Z,22.49
2023-08-11T22:10:00.826Z,22.86
2023-08-11T22:15:01.891Z,22.97
2023-08-11T22:20:03.919Z,23.11
2023-08-11T22:25:05.014Z,23.17
2023-08-11T22:30:05.110Z,23.17
2023-08-11T22:35:04.485Z,23.11
2023-08-11T22:40:05.543Z,23.02
2023-08-11T22:45:07.586Z,23.01
2023-08-11T22:50:06.756Z,23.02
2023-08-11T22:55:07.863Z,22.96
2023-08-11T23:00:10.066Z,23.05
2023-08-11T23:05:09.156Z,23.05
2023-08-11T23:10:10.264Z,23.08
2023-08-11T23:15:11.341Z,23.04
2023-08-11T23:20:12.399Z,22.97
2023-08-11T23:25:13.490Z,22.89
2023-08-11T23:30:14.560Z,22.78
2023-08-11T23:35:15.599Z,22.74
2023-08-11T23:40:17.650Z,22.83
2023-08-11T23:45:16.834Z,23.05
2023-08-11T23:50:17.953Z,23.02
2023-08-11T23:55:19.136Z,23.05
